createdAt,value
2023-10-06T00:00:35.243Z,56.53
2023-10-06T00:04:53.384Z,56.26
2023-10-06T00:09:11.348Z,56.18
2023-10-06T00:13:30.823Z,55.80
2023-10-06T00:17:50.733Z,55.25
2023-10-06T00:22:19.448Z,55.18
2023-10-06T00:26:35.926Z,55.18
2023-10-06T00:31:09.952Z,55.40
2023-10-06T00:35:32.706Z,55.91
2023-10-06T00:39:51.577Z,55.14
2023-10-06T00:44:08.144Z,54.97
2023-10-06T00:48:25.231Z,55.62
2023-10-06T00:52:42.348Z,55.20
2023-10-06T00:56:59.633Z,55.06
2023-10-06T01:01:18.814Z,55.77
2023-10-06T01:05:35.540Z,56.67
2023-10-06T01:09:58.531Z,56.66
2023-10-06T01:14:16.705Z,56.71
2023-10-06T01:18:36.614Z,57.84
2023-10-06T01:22:57.683Z,57.47
2023-10-06T01:27:14.256Z,56.83
2023-10-06T01:31:31.098Z,56.38
2023-10-06T01:35:47.526Z,57.18
2023-10-06T01:40:10.047Z,57.90
2023-10-06T01:44:28.926Z,58.16
2023-10-06T01:48:45.271Z,58.08
2023-10-06T01:53:06.601Z,57.84
2023-10-06T01:57:24.066Z,56.79
2023-10-06T02:01:41.845Z,56.76
2023-10-06T02:06:01.363Z,56.69
2023-10-06T02:10:19.822Z,58.13
2023-10-06T02:14:37.215Z,59.37
2023-10-06T02:18:55.531Z,58.68
2023-10-06T02:23:14.595Z,58.84
2023-10-06T02:27:37.415Z,57.61
2023-10-06T02:31:54.215Z,59.18
2023-10-06T02:36:19.581Z,59.67
2023-10-06T02:40:50.077Z,59.09
2023-10-06T02:45:08.309Z,59.04
2023-10-06T02:49:33.369Z,59.39
2023-10-06T02:53:52.334Z,60.33
2023-10-06T02:58:11.280Z,59.73
2023-10-06T03:02:28.046Z,59.69
2023-10-06T03:07:05.171Z,58.09
2023-10-06T03:11:24.878Z,58.09
2023-10-06T03:15:47.708Z,58.42
2023-10-06T03:20:13.081Z,58.14
2023-10-06T03:24:38.117Z,58.68
2023-10-06T03:28:54.740Z,58.49
2023-10-06T03:33:13.912Z,58.65
2023-10-06T03:37:48.570Z,58.32
2023-10-06T03:42:09.008Z,58.26
2023-10-06T03:46:25.924Z,58.14
2023-10-06T03:50:45.173Z,57.76
2023-10-06T03:55:01.821Z,57.14
2023-10-06T03:59:18.605Z,56.68
2023-10-06T04:03:35.543Z,56.97
2023-10-06T04:07:51.987Z,57.38
2023-10-06T04:12:08.457Z,56.42
2023-10-06T04:16:25.510Z,57.39
2023-10-06T04:20:45.280Z,57.66
2023-10-06T04:25:01.836Z,57.16
2023-10-06T04:29:20.231Z,56.87
2023-10-06T04:33:36.927Z,56.97
2023-10-06T04:37:53.522Z,57.91
2023-10-06T04:42:09.905Z,58.21
2023-10-06T04:46:27.451Z,57.96
2023-10-06T04:50:44.157Z,57.42
2023-10-06T04:55:04.536Z,57.87
2023-10-06T04:59:20.939Z,57.27
2023-10-06T05:03:47.871Z,57.09
2023-10-06T05:08:06.373Z,58.03
2023-10-06T05:12:24.978Z,58.11
2023-10-06T05:16:42.405Z,58.38
2023-10-06T05:20:59.561Z,58.41
2023-10-06T05:25:16.612Z,57.93
2023-10-06T05:29:37.461Z,58.15
2023-10-06T05:33:53.820Z,58.23
2023-10-06T05:38:17.418Z,58.36
2023-10-06T05:42:34.622Z,58.68
2023-10-06T05:46:50.933Z,58.57
2023-10-06T05:51:11.430Z,58.71
2023-10-06T05:55:36.573Z,58.72
2023-10-06T05:59:53.403Z,58.20
2023-10-06T06:04:10.593Z,58.46
2023-10-06T06:08:26.881Z,58.07
2023-10-06T06:12:43.820Z,58.29
2023-10-06T06:17:01.811Z,57.73
2023-10-06T06:21:18.171Z,57.75
2023-10-06T06:25:37.324Z,57.97
2023-10-06T06:29:54.238Z,58.14
2023-10-06T06:34:10.782Z,57.66
2023-10-06T06:38:27.146Z,57.52
2023-10-06T06:42:43.576Z,57.26
2023-10-06T06:46:59.883Z,56.42
2023-10-06T06:51:16.189Z,56.43
2023-10-06T06:55:33.662Z,55.71
2023-10-06T06:59:50.902Z,56.26
2023-10-06T07:04:09.967Z,56.29
2023-10-06T07:08:26.437Z,54.64
2023-10-06T07:12:44.508Z,54.45
2023-10-06T07:17:01.749Z,54.28
2023-10-06T07:21:19.337Z,53.65
2023-10-06T07:25:35.636Z,52.86
2023-10-06T07:29:55.153Z,51.18
2023-10-06T07:34:13.396Z,51.13
2023-10-06T07:38:29.865Z,49.94
2023-10-06T07:42:47.979Z,50.03
2023-10-06T07:47:04.671Z,49.10
2023-10-06T07:51:21.228Z,47.33
2023-10-06T07:55:38.404Z,47.57
2023-10-06T07:59:54.745Z,48.28
2023-10-06T08:04:12.086Z,48.60
2023-10-06T08:08:30.170Z,49.18
2023-10-06T08:12:57.851Z,48.26
2023-10-06T08:17:14.403Z,47.69
2023-10-06T08:21:30.746Z,46.88
2023-10-06T08:25:59.715Z,47.73
2023-10-06T08:30:18.619Z,46.78
2023-10-06T08:34:40.641Z,46.26
2023-10-06T08:38:59.093Z,44.31
2023-10-06T08:43:19.490Z,43.66
2023-10-06T08:47:49.023Z,44.03
2023-10-06T08:52:13.537Z,42.25
2023-10-06T08:56:32.128Z,41.86
2023-10-06T09:00:48.737Z,40.85
2023-10-06T09:05:06.923Z,41.15
2023-10-06T09:09:29.548Z,42.39
2023-10-06T09:13:48.222Z,41.96
2023-10-06T09:18:22.240Z,42.53
2023-10-06T09:22:52.071Z,40.94
2023-10-06T09:27:21.332Z,39.97
2023-10-06T09:31:40.144Z,41.11
2023-10-06T09:36:08.673Z,41.10
2023-10-06T09:40:25.096Z,39.87
2023-10-06T09:44:42.809Z,38.77
2023-10-06T09:49:01.188Z,38.89
2023-10-06T09:53:19.375Z,39.60
2023-10-06T09:57:36.758Z,39.09
2023-10-06T10:01:53.731Z,38.26
2023-10-06T10:06:11.356Z,37.91
2023-10-06T10:10:29.011Z,36.87
2023-10-06T10:14:56.574Z,36.75
2023-10-06T10:19:14.684Z,35.80
2023-10-06T10:23:31.960Z,35.13
2023-10-06T10:28:18.829Z,34.15
2023-10-06T10:32:35.251Z,34.72
2023-10-06T10:37:15.501Z,33.34
2023-10-06T10:41:36.607Z,33.09
2023-10-06T10:46:00.830Z,33.37
2023-10-06T10:50:18.507Z,32.63
2023-10-06T10:54:36.957Z,32.85
2023-10-06T10:58:55.397Z,33.02
2023-10-06T11:03:12.376Z,33.17
2023-10-06T11:07:28.809Z,33.23
2023-10-06T11:11:45.099Z,33.14
2023-10-06T11:16:06.377Z,32.53
2023-10-06T11:20:28.715Z,29.42
2023-10-06T11:24:45.963Z,29.55
2023-10-06T11:29:02.340Z,29.25
2023-10-06T11:33:21.579Z,30.00
2023-10-06T11:37:38.106Z,29.13
2023-10-06T11:41:57.319Z,26.83
2023-10-06T11:46:16.769Z,27.76
2023-10-06T11:50:34.044Z,27.70
2023-10-06T11:54:51.100Z,26.65
2023-10-06T11:59:19.459Z,26.29
2023-10-06T12:03:44.360Z,29.77
2023-10-06T12:08:10.231Z,27.60
2023-10-06T12:12:26.718Z,27.32
2023-10-06T12:16:46.453Z,27.66
2023-10-06T12:21:04.060Z,27.12
2023-10-06T12:25:26.844Z,25.69
2023-10-06T12:29:42.980Z,24.42
2023-10-06T12:34:05.348Z,25.71
2023-10-06T12:38:22.158Z,27.07
2023-10-06T12:42:40.183Z,25.33
2023-10-06T12:46:57.059Z,25.64
2023-10-06T12:51:14.296Z,26.51
2023-10-06T12:55:30.678Z,27.27
2023-10-06T12:59:47.295Z,27.91
2023-10-06T13:04:03.872Z,26.17
2023-10-06T13:08:23.067Z,26.22
2023-10-06T13:12:43.073Z,26.81
2023-10-06T13:16:59.624Z,27.42
2023-10-06T13:21:16.033Z,27.77
2023-10-06T13:25:33.083Z,29.33
2023-10-06T13:29:49.463Z,29.33
2023-10-06T13:34:05.882Z,28.80
2023-10-06T13:38:23.040Z,28.74
2023-10-06T13:42:46.667Z,29.33
2023-10-06T13:47:07.049Z,28.46
2023-10-06T13:51:23.408Z,27.50
2023-10-06T13:55:40.757Z,27.27
2023-10-06T13:59:57.137Z,26.43
2023-10-06T14:04:14.466Z,25.35
2023-10-06T14:08:30.899Z,26.47
2023-10-06T14:12:52.459Z,26.48
2023-10-06T14:17:18.079Z,27.72
2023-10-06T14:21:35.595Z,27.76
2023-10-06T14:25:53.566Z,28.64
2023-10-06T14:30:10.687Z,27.77
2023-10-06T14:34:53.417Z,27.32
2023-10-06T14:39:28.179Z,26.87
2023-10-06T14:44:04.248Z,27.50
2023-10-06T14:48:20.610Z,28.01
2023-10-06T14:52:37.031Z,27.52
2023-10-06T14:56:55.307Z,28.66
2023-10-06T15:01:15.937Z,29.50
2023-10-06T15:05:39.782Z,29.49
2023-10-06T15:09:57.035Z,29.63
2023-10-06T15:14:15.404Z,28.93
2023-10-06T15:18:32.185Z,29.77
2023-10-06T15:22:52.737Z,29.29
2023-10-06T15:27:09.385Z,29.80
2023-10-06T15:31:28.464Z,30.49
2023-10-06T15:35:45.042Z,32.29
2023-10-06T15:40:04.746Z,33.24
2023-10-06T15:44:22.041Z,34.30
2023-10-06T15:48:39.931Z,33.93
2023-10-06T15:52:56.819Z,35.62
2023-10-06T15:57:13.200Z,36.83
2023-10-06T16:01:30.231Z,34.92
2023-10-06T16:05:47.235Z,35.59
2023-10-06T16:10:03.779Z,36.24
2023-10-06T16:14:20.730Z,36.65
2023-10-06T16:18:37.706Z,36.63
2023-10-06T16:22:58.821Z,36.96
2023-10-06T16:27:15.367Z,37.73
2023-10-06T16:31:34.360Z,38.06
2023-10-06T16:35:51.231Z,37.51
2023-10-06T16:40:10.677Z,37.59
2023-10-06T16:44:27.335Z,38.37
2023-10-06T16:48:43.955Z,38.19
2023-10-06T16:53:01.492Z,38.34
2023-10-06T16:57:18.209Z,38.86
2023-10-06T17:01:36.112Z,40.05
2023-10-06T17:05:53.373Z,39.09
2023-10-06T17:10:11.595Z,38.86
2023-10-06T17:14:28.358Z,39.90
2023-10-06T17:18:44.879Z,40.30
2023-10-06T17:23:01.753Z,40.40
2023-10-06T17:27:18.260Z,41.25
2023-10-06T17:31:36.140Z,41.59
2023-10-06T17:35:52.933Z,42.14
2023-10-06T17:40:11.597Z,42.30
2023-10-06T17:44:29.058Z,41.62
2023-10-06T17:48:49.254Z,42.06
2023-10-06T17:53:06.699Z,42.33
2023-10-06T17:57:24.261Z,42.85
2023-10-06T18:01:40.752Z,43.99
2023-10-06T18:05:57.364Z,44.05
2023-10-06T18:10:15.953Z,43.99
2023-10-06T18:14:32.555Z,44.57
2023-10-06T18:18:48.859Z,44.12
2023-10-06T18:23:06.930Z,44.31
2023-10-06T18:27:23.858Z,44.10
2023-10-06T18:31:40.789Z,44.49
2023-10-06T18:35:57.346Z,45.35
2023-10-06T18:40:14.917Z,45.03
2023-10-06T18:44:32.545Z,45.36
2023-10-06T18:48:49.122Z,45.85
2023-10-06T18:53:05.562Z,46.44
2023-10-06T18:57:22.228Z,46.28
2023-10-06T19:01:39.562Z,46.67
2023-10-06T19:06:06.954Z,46.45
2023-10-06T19:10:23.347Z,46.64
2023-10-06T19:14:40.881Z,47.55
2023-10-06T19:18:59.806Z,47.29
2023-10-06T19:23:16.496Z,47.23
2023-10-06T19:27:33.341Z,47.32
2023-10-06T19:31:49.895Z,47.51
2023-10-06T19:36:07.844Z,47.79
2023-10-06T19:40:24.245Z,47.89
2023-10-06T19:44:44.870Z,48.69
2023-10-06T19:49:01.418Z,48.57
2023-10-06T19:53:18.232Z,49.38
2023-10-06T19:57:36.111Z,50.38
2023-10-06T20:01:52.461Z,50.56
2023-10-06T20:06:09.147Z,50.13
2023-10-06T20:10:31.645Z,49.93
2023-10-06T20:14:47.980Z,50.04
2023-10-06T20:19:04.369Z,50.29
2023-10-06T20:23:21.118Z,50.03
2023-10-06T20:27:37.773Z,50.13
2023-10-06T20:31:55.064Z,50.31
2023-10-06T20:36:11.471Z,51.37
2023-10-06T20:40:29.259Z,51.82
2023-10-06T20:44:45.626Z,51.85
2023-10-06T20:49:02.164Z,51.23
2023-10-06T20:53:18.719Z,51.32
2023-10-06T20:57:36.055Z,51.67
2023-10-06T21:01:53.497Z,52.24
2023-10-06T21:06:10.261Z,52.31
2023-10-06T21:10:28.152Z,52.50
2023-10-06T21:14:45.286Z,51.76
2023-10-06T21:19:01.593Z,52.56
2023-10-06T21:23:19.065Z,52.57
2023-10-06T21:27:37.493Z,53.24
2023-10-06T21:31:54.478Z,53.41
2023-10-06T21:36:10.830Z,53.60
2023-10-06T21:40:28.736Z,53.52
2023-10-06T21:44:45.483Z,54.41
2023-10-06T21:49:03.815Z,54.40
2023-10-06T21:53:20.197Z,54.49
2023-10-06T21:57:36.555Z,55.62
2023-10-06T22:01:53.931Z,54.76
2023-10-06T22:06:11.414Z,54.58
2023-10-06T22:10:29.005Z,54.29
2023-10-06T22:14:45.359Z,53.72
2023-10-06T22:19:01.696Z,53.39
2023-10-06T22:23:18.052Z,54.21
2023-10-06T22:27:34.673Z,54.17
2023-10-06T22:31:51.500Z,54.79
2023-10-06T22:36:08.070Z,54.98
2023-10-06T22:40:25.115Z,55.25
2023-10-06T22:44:41.623Z,54.85
2023-10-06T22:48:58.403Z,54.80
2023-10-06T22:53:14.822Z,54.98
2023-10-06T22:57:31.226Z,55.16
2023-10-06T23:01:48.212Z,54.69
2023-10-06T23:06:06.503Z,54.79
2023-10-06T23:10:24.001Z,55.23
2023-10-06T23:14:43.636Z,54.66
2023-10-06T23:19:00.386Z,54.95
2023-10-06T23:23:20.812Z,55.21
2023-10-06T23:27:37.973Z,56.57
2023-10-06T23:31:54.455Z,56.98
2023-10-06T23:36:11.770Z,57.85
2023-10-06T23:40:34.865Z,57.97
2023-10-06T23:44:51.288Z,57.84
2023-10-06T23:49:12.728Z,57.74
2023-10-06T23:53:29.543Z,57.54
2023-10-06T23:57:51.708Z,56.56
